Time;durP1;ratioP1;P1;durP2;ratioP2;P2;SDS_P1;SDS_P2;PMS_P1;PMS_P2;Temp;Humidity;BMP_temperature;BMP_pressure;BME280_temperature;BME280_humidity;BME280_pressure;Samples;Min_cycle;Max_cycle;Signal;HPM_P1;HPM_P2
2022/08/06 00:00:12;;;;;;;3.67;3.10;;;;;;;20.37;66.08;156601.28;5032599;28;20440;-77
2022/08/06 00:02:39;;;;;;;3.17;2.63;;;;;;;20.37;65.98;156601.28;5030662;28;20521;-77
2022/08/06 00:05:07;;;;;;;3.60;3.30;;;;;;;20.40;65.86;156609.09;5033803;28;20459;-77
2022/08/06 00:07:34;;;;;;;3.80;2.60;;;;;;;20.26;65.32;156572.56;5032139;28;20455;-79
2022/08/06 00:10:00;;;;;;;3.77;2.97;;;;;;;20.19;65.27;156554.28;5034108;28;20420;-79
2022/08/06 00:12:27;;;;;;;4.53;2.50;;;;;;;20.14;65.54;156541.25;5031175;28;20950;-79
2022/08/06 00:14:54;;;;;;;4.27;2.63;;;;;;;20.18;65.15;156551.66;5015184;28;20452;-79
2022/08/06 00:17:23;;;;;;;3.00;2.70;;;;;;;20.10;65.01;156529.47;5016052;28;20487;-79
2022/08/06 00:19:49;;;;;;;3.10;2.80;;;;;;;20.02;64.70;156509.91;5003245;28;20550;-79
2022/08/06 00:22:16;;;;;;;2.73;2.43;;;;;;;20.03;64.34;156513.88;4997114;28;20456;-78
2022/08/06 00:24:43;;;;;;;3.53;2.67;;;;;;;19.98;64.38;156499.50;5015291;28;20574;-79
2022/08/06 00:27:09;;;;;;;2.90;2.70;;;;;;;20.00;63.83;156504.72;5033395;28;20443;-79
2022/08/06 00:29:36;;;;;;;2.60;2.40;;;;;;;20.00;63.71;156504.72;4983076;28;20807;-79
2022/08/06 00:32:03;;;;;;;4.13;2.80;;;;;;;19.95;63.62;156491.69;5014717;28;20443;-79
2022/08/06 00:34:31;;;;;;;3.00;2.60;;;;;;;19.88;63.77;156473.44;5011140;28;20466;-79
2022/08/06 00:36:58;;;;;;;2.93;2.43;;;;;;;19.99;63.32;156503.41;5001360;28;20827;-78
2022/08/06 00:39:24;;;;;;;3.50;2.57;;;;;;;19.92;63.52;156483.84;4995996;28;20894;-78
2022/08/06 00:41:51;;;;;;;3.10;2.80;;;;;;;19.94;63.32;156489.06;5000169;28;20550;-78
2022/08/06 00:44:18;;;;;;;3.67;2.80;;;;;;;19.92;62.95;156483.84;5033270;28;20872;-78
2022/08/06 00:46:46;;;;;;;4.47;2.60;;;;;;;19.89;63.00;156476.03;4997450;28;20448;-78
2022/08/06 00:49:13;;;;;;;3.13;2.60;;;;;;;19.80;63.40;156453.84;4995214;28;20441;-78
2022/08/06 00:51:42;;;;;;;3.10;2.80;;;;;;;19.84;62.79;156463.00;5009359;28;20447;-79
2022/08/06 00:54:09;;;;;;;2.67;2.47;;;;;;;19.83;62.61;156461.66;5015742;28;20444;-79
2022/08/06 00:56:36;;;;;;;2.40;2.20;;;;;;;19.77;62.84;156444.75;4995155;28;20464;-78
2022/08/06 00:59:03;;;;;;;2.73;2.53;;;;;;;19.74;62.61;156436.91;4995312;28;20936;-78
2022/08/06 01:01:30;;;;;;;2.73;2.53;;;;;;;19.70;62.74;156426.47;5020456;28;20496;-78
2022/08/06 01:03:57;;;;;;;3.97;3.20;;;;;;;19.68;63.08;156421.25;5011898;28;20488;-78
2022/08/06 01:06:26;;;;;;;2.80;2.33;;;;;;;19.64;62.35;156410.84;4995515;28;20885;-77
2022/08/06 01:08:54;;;;;;;3.10;2.50;;;;;;;19.67;62.56;156418.69;4994757;28;20591;-78
2022/08/06 01:11:21;;;;;;;3.07;2.77;;;;;;;19.61;62.89;156404.34;4997388;28;20555;-77
2022/08/06 01:13:48;;;;;;;2.80;2.20;;;;;;;19.65;62.76;156413.44;5030313;28;20450;-77
2022/08/06 01:16:20;;;;;;;3.20;2.90;;;;;;;19.68;62.55;156422.56;4998827;28;20440;-77
2022/08/06 01:18:56;;;;;;;2.50;2.30;;;;;;;19.59;62.43;156397.81;5012238;28;20454;-78
2022/08/06 01:21:50;;;;;;;2.97;2.67;;;;;;;19.56;62.56;156390.00;5014066;28;20806;-76
2022/08/06 01:24:48;;;;;;;3.30;2.73;;;;;;;19.49;62.63;156371.72;4996845;28;20459;-78
2022/08/06 01:27:30;;;;;;;2.70;2.50;;;;;;;19.53;62.29;156382.16;5031805;28;20435;-78
2022/08/06 01:30:03;;;;;;;2.77;2.57;;;;;;;19.46;62.06;156363.94;5012177;28;20860;-77
2022/08/06 01:32:32;;;;;;;2.67;2.33;;;;;;;19.45;61.85;156362.63;5015008;28;20913;-77
2022/08/06 01:35:04;;;;;;;3.70;2.50;;;;;;;19.32;61.59;156330.00;5032026;28;20431;-77
2022/08/06 01:37:34;;;;;;;2.70;2.50;;;;;;;19.32;61.93;156330.00;5031253;28;20462;-77
2022/08/06 01:40:05;;;;;;;2.60;2.27;;;;;;;19.26;61.56;156314.34;5032043;28;20412;-77
2022/08/06 01:42:35;;;;;;;2.43;2.23;;;;;;;19.25;62.01;156311.72;5033003;28;20534;-77
2022/08/06 01:45:04;;;;;;;3.20;2.20;;;;;;;19.27;62.12;156316.91;4999781;28;20468;-77
2022/08/06 01:47:33;;;;;;;2.60;2.40;;;;;;;19.35;61.69;156337.78;5012204;28;20437;-78
2022/08/06 01:50:04;;;;;;;4.03;2.30;;;;;;;19.31;61.44;156326.06;5028356;28;20450;-77
2022/08/06 01:52:35;;;;;;;2.90;2.70;;;;;;;19.31;61.76;156326.06;5012444;28;20432;-77
2022/08/06 01:55:03;;;;;;;2.50;2.30;;;;;;;19.17;61.96;156290.88;5031578;28;20455;-77
2022/08/06 01:57:33;;;;;;;2.77;2.57;;;;;;;19.23;61.74;156306.53;5013444;28;20459;-77
2022/08/06 02:00:01;;;;;;;2.83;2.00;;;;;;;19.20;61.84;156298.69;5031289;28;20420;-77
2022/08/06 02:02:30;;;;;;;2.93;2.70;;;;;;;19.23;62.04;156305.19;4995690;28;20489;-78
2022/08/06 02:04:59;;;;;;;2.80;2.50;;;;;;;19.24;62.42;156307.84;4993844;28;20479;-77
2022/08/06 02:07:28;;;;;;;3.40;2.43;;;;;;;19.25;62.02;156311.72;5015142;28;20448;-77
2022/08/06 02:09:57;;;;;;;2.57;2.30;;;;;;;19.19;61.96;156296.13;5027204;28;20541;-77
2022/08/06 02:12:26;;;;;;;2.60;2.40;;;;;;;19.04;62.35;156256.97;5002093;28;20507;-77
2022/08/06 02:14:56;;;;;;;3.00;2.70;;;;;;;19.00;62.17;156245.28;5010779;28;20436;-77
2022/08/06 02:17:26;;;;;;;2.93;2.40;;;;;;;19.00;62.17;156246.59;5031184;28;20486;-78
2022/08/06 02:19:54;;;;;;;2.73;2.17;;;;;;;18.92;62.76;156225.72;5031065;28;20485;-77
2022/08/06 02:22:21;;;;;;;3.33;2.60;;;;;;;18.91;62.89;156221.78;5030256;28;20664;-77
2022/08/06 02:24:48;;;;;;;2.70;2.50;;;;;;;18.90;62.71;156219.22;5029720;28;20959;-77
2022/08/06 02:27:16;;;;;;;3.93;2.70;;;;;;;18.95;62.68;156233.56;5024323;28;20456;-77
2022/08/06 02:29:44;;;;;;;3.00;2.70;;;;;;;18.89;62.61;156216.59;5008211;28;20538;-77
2022/08/06 02:32:13;;;;;;;2.80;2.57;;;;;;;18.74;62.88;156178.84;5032039;28;20726;-76
2022/08/06 02:34:40;;;;;;;3.07;2.50;;;;;;;18.64;63.50;156152.75;5030712;28;20525;-77
2022/08/06 02:37:12;;;;;;;2.53;2.20;;;;;;;18.65;63.15;156155.38;5031362;28;20439;-77
2022/08/06 02:39:45;;;;;;;2.87;2.67;;;;;;;18.54;63.86;156126.69;5012896;28;20815;-77
2022/08/06 02:42:18;;;;;;;2.93;2.53;;;;;;;18.59;63.70;156139.72;5013504;28;20500;-78
2022/08/06 02:44:49;;;;;;;4.00;2.20;;;;;;;18.69;63.41;156165.81;5004205;28;20502;-78
2022/08/06 02:47:22;;;;;;;3.67;2.83;;;;;;;18.66;63.85;156159.31;4994313;28;20787;-78
2022/08/06 02:49:51;;;;;;;2.40;2.20;;;;;;;18.68;63.58;156164.50;5031943;28;20420;-78
2022/08/06 02:52:27;;;;;;;3.00;2.70;;;;;;;18.55;63.67;156130.63;5030910;28;20535;-78
2022/08/06 02:54:57;;;;;;;2.40;2.20;;;;;;;18.52;64.70;156122.81;5012619;28;20455;-77
2022/08/06 02:57:26;;;;;;;2.67;2.20;;;;;;;18.57;64.11;156134.53;5031269;28;20952;-78
2022/08/06 02:59:56;;;;;;;3.90;2.60;;;;;;;18.55;64.59;156130.63;5012661;28;20809;-78
2022/08/06 03:02:26;;;;;;;3.10;2.37;;;;;;;18.53;64.67;156124.13;5017168;28;20896;-78
2022/08/06 03:04:54;;;;;;;2.73;2.53;;;;;;;18.50;64.64;156117.59;5014337;28;20463;-77
2022/08/06 03:07:22;;;;;;;4.03;2.80;;;;;;;18.46;64.52;156105.81;5013686;28;20535;-78
2022/08/06 03:09:49;;;;;;;3.10;2.30;;;;;;;18.48;64.57;156111.09;4984086;28;20461;-78
2022/08/06 03:12:17;;;;;;;3.50;2.47;;;;;;;18.49;64.36;156113.66;5005383;28;20443;-78
2022/08/06 03:14:45;;;;;;;2.97;2.67;;;;;;;18.40;65.17;156090.22;5024040;28;20462;-78
2022/08/06 03:17:13;;;;;;;3.07;2.77;;;;;;;18.37;65.26;156082.38;5031160;28;20473;-77
2022/08/06 03:19:43;;;;;;;4.60;2.60;;;;;;;18.30;64.93;156064.13;4995631;28;20531;-78
2022/08/06 03:22:11;;;;;;;3.70;2.37;;;;;;;18.36;65.35;156081.06;5034448;28;20444;-78
2022/08/06 03:24:38;;;;;;;2.70;2.50;;;;;;;18.35;65.65;156077.19;5015812;28;20553;-78
2022/08/06 03:27:06;;;;;;;4.10;2.63;;;;;;;18.41;65.27;156094.09;5017603;28;20486;-78
2022/08/06 03:29:33;;;;;;;3.70;2.70;;;;;;;18.39;65.62;156087.59;5034554;28;20863;-78
2022/08/06 03:32:00;;;;;;;2.83;2.53;;;;;;;18.44;65.65;156101.91;5035003;28;20444;-78
2022/08/06 03:34:29;;;;;;;2.87;2.63;;;;;;;18.30;65.71;156064.13;5015427;28;20546;-78
2022/08/06 03:36:57;;;;;;;2.70;2.50;;;;;;;18.23;66.37;156047.22;5033668;28;20919;-78
2022/08/06 03:39:25;;;;;;;2.90;2.70;;;;;;;18.22;66.33;156045.91;5016179;28;20526;-78
2022/08/06 03:41:53;;;;;;;3.27;2.97;;;;;;;18.32;65.73;156069.38;5016339;28;20563;-78
2022/08/06 03:44:19;;;;;;;2.70;2.50;;;;;;;18.25;66.42;156053.72;5014264;28;20502;-78
2022/08/06 03:46:49;;;;;;;3.27;2.77;;;;;;;18.27;66.21;156058.91;5034578;28;20475;-77
2022/08/06 03:49:22;;;;;;;2.97;2.77;;;;;;;18.18;66.84;156035.50;5016231;28;20475;-78
2022/08/06 03:51:50;;;;;;;2.80;2.60;;;;;;;18.14;66.70;156025.06;5033075;28;20621;-78
2022/08/06 03:54:24;;;;;;;2.60;2.40;;;;;;;18.13;66.78;156022.50;5034110;28;20428;-78
2022/08/06 03:56:51;;;;;;;9.43;2.83;;;;;;;18.11;66.88;156017.25;5016235;28;20454;-78
2022/08/06 03:59:19;;;;;;;3.23;2.67;;;;;;;18.13;66.75;156021.19;5015733;28;21009;-78
2022/08/06 04:01:46;;;;;;;3.73;3.00;;;;;;;18.18;66.66;156034.19;5014992;28;20444;-78
2022/08/06 04:04:15;;;;;;;2.90;2.60;;;;;;;18.08;67.01;156009.41;5027563;28;20452;-78
2022/08/06 04:06:43;;;;;;;3.10;2.80;;;;;;;18.07;67.03;156006.84;5014170;28;20476;-78
2022/08/06 04:09:10;;;;;;;3.93;2.57;;;;;;;18.06;67.12;156004.22;5000859;28;21021;-78
2022/08/06 04:11:38;;;;;;;3.27;2.70;;;;;;;18.09;66.97;156012.03;5033561;28;20456;-78
2022/08/06 04:14:08;;;;;;;3.07;2.87;;;;;;;18.06;67.22;156002.91;5014799;28;20440;-78
2022/08/06 04:16:35;;;;;;;3.00;2.70;;;;;;;18.03;67.66;155996.41;5029555;28;20494;-78
2022/08/06 04:19:02;;;;;;;2.70;2.50;;;;;;;18.08;67.59;156009.41;4996447;28;20828;-78
2022/08/06 04:21:29;;;;;;;3.40;2.73;;;;;;;18.02;67.51;155993.81;5013968;28;20437;-78
2022/08/06 04:23:56;;;;;;;2.43;2.23;;;;;;;18.02;67.51;155993.81;5017243;28;20567;-78
2022/08/06 04:26:24;;;;;;;3.70;3.03;;;;;;;17.97;68.06;155979.50;5002266;28;20582;-78
2022/08/06 04:28:55;;;;;;;3.93;2.80;;;;;;;17.97;67.54;155980.81;5031629;28;20451;-77
2022/08/06 04:31:22;;;;;;;3.50;3.10;;;;;;;17.98;67.96;155983.38;5033264;28;20449;-78
2022/08/06 04:33:49;;;;;;;3.87;3.00;;;;;;;18.01;67.85;155991.22;5014050;28;20793;-77
2022/08/06 04:36:16;;;;;;;2.90;2.70;;;;;;;18.01;67.74;155991.22;5015228;28;20456;-77
2022/08/06 04:38:43;;;;;;;2.60;2.40;;;;;;;17.97;68.22;155980.81;5034116;28;20432;-77
2022/08/06 04:41:12;;;;;;;3.10;2.90;;;;;;;17.91;68.53;155965.16;5016378;28;20476;-77
2022/08/06 04:43:38;;;;;;;2.80;2.60;;;;;;;17.91;68.88;155965.16;5006546;28;20453;-78
2022/08/06 04:46:07;;;;;;;3.40;3.10;;;;;;;17.95;68.45;155975.56;4995759;28;20464;-78
2022/08/06 04:48:34;;;;;;;6.40;3.20;;;;;;;17.92;68.47;155967.78;5002945;28;20545;-77
2022/08/06 04:51:03;;;;;;;2.57;2.37;;;;;;;17.85;68.88;155948.22;5008377;28;20440;-77
2022/08/06 04:53:36;;;;;;;3.40;3.10;;;;;;;17.77;69.46;155928.69;5013360;28;20976;-77
2022/08/06 04:56:03;;;;;;;2.70;2.47;;;;;;;17.64;69.85;155894.84;4995982;28;21016;-77
2022/08/06 04:58:30;;;;;;;3.10;2.80;;;;;;;17.64;69.81;155896.16;5012041;28;20425;-78
2022/08/06 05:00:56;;;;;;;3.77;3.47;;;;;;;17.57;70.68;155877.97;5005936;28;20860;-78
2022/08/06 05:03:25;;;;;;;3.57;3.27;;;;;;;17.57;70.91;155876.66;4998214;28;20530;-79
2022/08/06 05:05:55;;;;;;;3.93;3.40;;;;;;;17.54;71.04;155868.84;4998334;28;20837;-79
2022/08/06 05:08:23;;;;;;;4.27;3.60;;;;;;;17.63;70.90;155893.53;5005969;28;20441;-78
2022/08/06 05:10:56;;;;;;;3.40;3.10;;;;;;;17.58;71.14;155879.22;4996584;28;20452;-78
2022/08/06 05:13:23;;;;;;;3.40;2.43;;;;;;;17.61;70.79;155887.03;5027903;28;20444;-78
2022/08/06 05:15:58;;;;;;;4.63;3.60;;;;;;;17.61;70.98;155887.03;4996835;28;20432;-84
2022/08/06 05:18:29;;;;;;;4.63;3.13;;;;;;;17.66;70.85;155900.06;5018121;28;20844;-84
2022/08/06 05:20:56;;;;;;;3.37;3.07;;;;;;;17.74;70.55;155920.88;5020903;28;21098;-83
2022/08/06 05:23:28;;;;;;;3.60;3.30;;;;;;;17.77;70.38;155928.69;4995012;28;20441;-83
2022/08/06 05:25:55;;;;;;;3.90;3.60;;;;;;;17.68;70.92;155905.28;5025964;28;20529;-84
2022/08/06 05:28:22;;;;;;;3.40;3.10;;;;;;;17.73;71.37;155918.31;5014271;28;20833;-84
2022/08/06 05:30:50;;;;;;;3.63;3.20;;;;;;;17.68;71.13;155903.97;5012124;28;20483;-84
2022/08/06 05:33:25;;;;;;;4.00;3.20;;;;;;;17.68;71.20;155903.97;5032462;28;20436;-84
2022/08/06 05:35:52;;;;;;;5.03;3.50;;;;;;;17.62;71.49;155890.97;5013408;28;20433;-84
2022/08/06 05:38:19;;;;;;;3.40;3.10;;;;;;;17.71;71.54;155913.13;4995249;28;20466;-85
2022/08/06 05:40:46;;;;;;;5.73;3.00;;;;;;;17.72;71.51;155914.38;5030416;28;20455;-85
2022/08/06 05:43:12;;;;;;;3.50;3.10;;;;;;;17.81;71.20;155939.16;5015904;28;20991;-84
2022/08/06 05:45:41;;;;;;;3.60;3.30;;;;;;;17.70;71.64;155910.50;5012113;28;20437;-84
2022/08/06 05:48:08;;;;;;;3.40;3.10;;;;;;;17.67;71.77;155902.69;5000899;28;20457;-84
2022/08/06 05:50:40;;;;;;;4.20;3.47;;;;;;;17.73;71.70;155917.00;5006694;28;20458;-84
2022/08/06 05:53:10;;;;;;;3.80;3.23;;;;;;;17.74;71.80;155919.63;4995404;28;20603;-85
2022/08/06 05:55:40;;;;;;;3.17;2.80;;;;;;;17.77;71.58;155927.38;5012398;28;20444;-85
2022/08/06 05:58:10;;;;;;;3.47;3.13;;;;;;;17.85;71.40;155949.53;5011435;28;20461;-84
2022/08/06 06:00:39;;;;;;;3.70;3.40;;;;;;;18.03;70.92;155996.41;5013289;28;20450;-85
2022/08/06 06:03:08;;;;;;;4.83;3.40;;;;;;;18.22;70.68;156045.91;5013792;28;20452;-85
2022/08/06 06:05:37;;;;;;;3.63;3.33;;;;;;;18.07;70.23;156006.84;5031560;28;20527;-85
2022/08/06 06:08:06;;;;;;;3.77;3.37;;;;;;;18.22;70.05;156044.59;5010124;28;20480;-85
2022/08/06 06:10:33;;;;;;;4.50;3.47;;;;;;;18.40;69.28;156091.47;5030214;28;20513;-85
2022/08/06 06:13:01;;;;;;;3.83;3.53;;;;;;;18.48;69.63;156111.09;5012577;28;20464;-84
2022/08/06 06:15:28;;;;;;;3.97;3.67;;;;;;;18.57;68.48;156134.53;5029960;28;20958;-84
2022/08/06 06:18:08;;;;;;;3.33;3.03;;;;;;;18.66;68.89;156159.31;5029778;28;20452;-84
2022/08/06 06:20:45;;;;;;;3.00;2.80;;;;;;;18.88;68.64;156215.28;5029885;28;20420;-84
2022/08/06 06:23:16;;;;;;;3.67;3.30;;;;;;;19.02;68.02;156251.78;4997595;28;20451;-85
2022/08/06 06:25:47;;;;;;;4.20;3.77;;;;;;;19.07;66.88;156264.81;5021917;28;20836;-85
2022/08/06 06:28:19;;;;;;;3.43;3.13;;;;;;;19.05;66.60;156259.59;4985137;28;21106;-85
2022/08/06 06:30:52;;;;;;;4.07;3.67;;;;;;;19.27;66.20;156315.66;5013362;28;20432;-85
2022/08/06 06:33:22;;;;;;;3.47;3.20;;;;;;;19.17;66.22;156290.88;5014071;28;20444;-85
2022/08/06 06:35:53;;;;;;;2.97;2.77;;;;;;;19.30;66.71;156324.75;5013616;28;20440;-85
2022/08/06 06:38:26;;;;;;;3.77;3.47;;;;;;;19.42;65.72;156356.09;5012726;28;20466;-85
2022/08/06 06:40:58;;;;;;;3.03;2.73;;;;;;;19.60;65.95;156401.72;5012888;28;20431;-85
2022/08/06 06:43:40;;;;;;;3.87;3.10;;;;;;;19.95;64.70;156491.69;4998581;28;20543;-85
2022/08/06 06:46:13;;;;;;;4.90;3.60;;;;;;;19.65;64.83;156413.44;5011605;28;20447;-85
2022/08/06 06:48:43;;;;;;;4.23;3.60;;;;;;;19.50;65.55;156374.34;5029550;28;20447;-85
2022/08/06 06:51:15;;;;;;;4.30;3.43;;;;;;;19.64;65.36;156410.84;5015470;28;20444;-85
2022/08/06 06:53:46;;;;;;;4.70;3.27;;;;;;;19.82;64.87;156457.78;4993984;28;20447;-85
2022/08/06 06:56:15;;;;;;;3.80;3.50;;;;;;;20.11;63.72;156532.09;5004142;28;20459;-85
2022/08/06 06:58:48;;;;;;;3.60;3.30;;;;;;;20.24;63.71;156567.38;5016592;28;20789;-85
2022/08/06 07:01:16;;;;;;;3.47;3.17;;;;;;;20.32;62.96;156586.94;5034488;28;20469;-85
2022/08/06 07:03:44;;;;;;;3.40;3.10;;;;;;;20.45;63.02;156622.16;5034909;28;20428;-84
2022/08/06 07:06:13;;;;;;;3.50;3.20;;;;;;;20.63;62.53;156667.78;5031976;28;20810;-84
2022/08/06 07:08:44;;;;;;;3.70;3.27;;;;;;;20.77;62.42;156703.03;5033607;28;20489;-84
2022/08/06 07:11:12;;;;;;;4.57;3.50;;;;;;;20.91;61.07;156740.88;5000849;28;20938;-82
2022/08/06 07:13:39;;;;;;;4.17;3.80;;;;;;;20.62;61.37;156666.47;5017054;28;20441;-84
2022/08/06 07:16:07;;;;;;;6.63;3.73;;;;;;;20.54;61.98;156645.59;5012156;28;20467;-84
2022/08/06 07:18:35;;;;;;;3.63;3.17;;;;;;;20.45;62.52;156622.16;4997248;28;20783;-84
2022/08/06 07:21:03;;;;;;;4.10;3.13;;;;;;;20.65;62.15;156673.03;4996904;28;20528;-84
2022/08/06 07:23:32;;;;;;;3.80;3.40;;;;;;;20.67;61.99;156678.25;5014933;28;20456;-84
2022/08/06 07:26:00;;;;;;;5.30;3.40;;;;;;;20.71;61.05;156687.34;5002054;28;20457;-84
2022/08/06 07:28:27;;;;;;;3.53;3.23;;;;;;;20.89;61.26;156734.38;4997360;28;20834;-84
2022/08/06 07:30:54;;;;;;;3.70;3.40;;;;;;;20.84;60.86;156722.59;4999510;28;20510;-84
2022/08/06 07:33:22;;;;;;;3.70;3.40;;;;;;;20.63;61.18;156669.09;5011079;28;20448;-84
2022/08/06 07:35:51;;;;;;;4.77;3.90;;;;;;;20.62;61.56;156666.47;4999148;28;20466;-85
2022/08/06 07:38:19;;;;;;;7.50;3.77;;;;;;;20.63;60.79;156669.09;5033068;28;20462;-83
2022/08/06 07:40:51;;;;;;;3.97;3.60;;;;;;;20.60;61.53;156661.28;5011906;28;20518;-83
2022/08/06 07:43:20;;;;;;;5.17;3.57;;;;;;;20.91;61.17;156739.56;4996681;28;20928;-83
2022/08/06 07:45:49;;;;;;;4.30;3.87;;;;;;;21.22;60.41;156820.53;4992481;28;20456;-83
2022/08/06 07:48:18;;;;;;;6.53;3.40;;;;;;;21.20;59.87;156815.31;5014323;28;20502;-83
2022/08/06 07:50:48;;;;;;;3.83;3.47;;;;;;;20.87;60.40;156729.09;5025298;28;20881;-84
2022/08/06 07:53:15;;;;;;;4.30;3.90;;;;;;;20.45;61.50;156620.84;5000800;28;20856;-85
2022/08/06 07:55:43;;;;;;;4.90;3.80;;;;;;;20.22;62.66;156562.13;5017351;28;20438;-84
2022/08/06 07:58:11;;;;;;;4.37;3.97;;;;;;;20.52;61.55;156639.06;5026825;28;20445;-85
2022/08/06 08:00:39;;;;;;;4.00;3.70;;;;;;;20.70;60.93;156684.78;5013606;28;20955;-85
2022/08/06 08:08:35;;;;;;;4.37;3.97;;;;;;;19.91;63.28;156482.53;5000331;28;20468;-85
2022/08/06 08:11:03;;;;;;;4.00;3.60;;;;;;;20.14;62.99;156539.94;4996500;28;20491;-85
2022/08/06 08:13:32;;;;;;;4.00;3.60;;;;;;;20.18;62.98;156551.66;5026903;28;20547;-85
2022/08/06 08:15:59;;;;;;;5.17;4.30;;;;;;;20.40;61.78;156609.09;5009055;28;20545;-85
2022/08/06 08:18:29;;;;;;;5.30;3.60;;;;;;;20.61;61.21;156663.91;5031129;28;20450;-84
2022/08/06 08:20:56;;;;;;;4.53;4.13;;;;;;;21.04;60.61;156774.81;5032204;28;20462;-83
2022/08/06 08:23:24;;;;;;;5.20;3.70;;;;;;;21.10;59.17;156789.22;5018090;28;20506;-84
2022/08/06 08:25:50;;;;;;;3.83;3.53;;;;;;;21.30;57.68;156840.09;5015586;28;20468;-84
2022/08/06 08:28:17;;;;;;;4.07;3.43;;;;;;;21.33;58.64;156849.25;4997999;28;20476;-84
2022/08/06 08:30:46;;;;;;;3.70;3.30;;;;;;;21.53;58.21;156901.44;5015696;28;20433;-83
2022/08/06 08:33:12;;;;;;;4.07;3.70;;;;;;;21.90;56.81;156996.78;5031672;28;20452;-83
2022/08/06 08:35:39;;;;;;;4.10;3.70;;;;;;;21.68;57.09;156940.59;5035325;28;20431;-84
2022/08/06 08:38:06;;;;;;;3.90;3.60;;;;;;;21.29;56.86;156838.78;5035268;28;20427;-85
2022/08/06 08:40:35;;;;;;;3.80;3.40;;;;;;;21.37;57.48;156859.66;5029161;28;20447;-77
2022/08/06 08:43:03;;;;;;;4.83;3.87;;;;;;;21.41;57.09;156870.13;5005421;28;20488;-77
2022/08/06 08:45:30;;;;;;;4.53;3.67;;;;;;;21.58;56.70;156914.47;5001521;28;20534;-77
2022/08/06 08:47:59;;;;;;;3.40;3.07;;;;;;;21.37;57.09;156859.66;5013725;28;20483;-78
2022/08/06 08:50:28;;;;;;;4.07;3.67;;;;;;;21.26;55.95;156829.66;4995574;28;20499;-77
2022/08/06 08:52:59;;;;;;;3.70;3.40;;;;;;;21.18;57.11;156811.38;5013285;28;20856;-77
2022/08/06 08:55:26;;;;;;;5.00;3.70;;;;;;;20.76;57.01;156700.44;5012663;28;20793;-78
2022/08/06 08:57:55;;;;;;;3.80;3.43;;;;;;;20.94;56.98;156747.41;5011210;28;20460;-78
2022/08/06 09:00:22;;;;;;;4.00;3.43;;;;;;;20.79;57.40;156708.22;5011983;28;20501;-78
2022/08/06 09:02:49;;;;;;;5.20;3.80;;;;;;;20.85;57.51;156723.91;5011006;28;20875;-77
2022/08/06 09:05:18;;;;;;;4.90;4.47;;;;;;;20.85;57.83;156725.22;5014439;28;20539;-77
2022/08/06 09:07:45;;;;;;;4.17;3.77;;;;;;;20.95;57.57;156750.00;5011268;28;20840;-77
2022/08/06 09:10:12;;;;;;;6.00;3.63;;;;;;;20.99;56.81;156760.44;5017708;28;20491;-77
2022/08/06 09:12:39;;;;;;;4.00;3.70;;;;;;;21.20;56.17;156816.63;5030883;28;20800;-77
2022/08/06 09:15:06;;;;;;;3.80;3.50;;;;;;;21.82;54.55;156977.16;5026915;28;20441;-77
2022/08/06 09:17:33;;;;;;;4.80;3.90;;;;;;;21.69;54.52;156943.22;4993939;28;20799;-77
2022/08/06 09:20:00;;;;;;;3.70;3.23;;;;;;;22.13;53.81;157056.88;5012183;28;20613;-78
2022/08/06 09:22:28;;;;;;;3.60;3.30;;;;;;;22.14;54.36;157059.47;5028602;28;20808;-78
2022/08/06 09:24:55;;;;;;;4.60;3.80;;;;;;;22.21;53.00;157076.47;4995143;28;20516;-77
2022/08/06 09:27:22;;;;;;;4.20;3.73;;;;;;;21.88;53.19;156990.25;5011280;28;20887;-77
2022/08/06 09:29:50;;;;;;;3.43;3.13;;;;;;;22.06;52.89;157037.25;5005728;28;20451;-77
2022/08/06 09:32:39;;;;;;;4.13;3.73;;;;;;;21.72;54.33;156951.06;5008379;28;20551;-77
2022/08/06 09:35:17;;;;;;;4.10;3.80;;;;;;;21.67;nan;156936.69;5022281;28;20449;-77
2022/08/06 09:37:45;;;;;;;4.43;4.03;;;;;;;22.08;54.13;157042.53;4994281;28;20451;-77
2022/08/06 09:40:13;;;;;;;4.07;3.67;;;;;;;22.12;53.47;157052.94;5000673;28;20455;-78
2022/08/06 09:42:41;;;;;;;3.60;3.30;;;;;;;21.94;54.44;157005.94;5014542;28;20448;-78
2022/08/06 09:45:08;;;;;;;4.50;4.10;;;;;;;21.54;55.32;156904.06;5014160;28;20502;-77
2022/08/06 09:47:37;;;;;;;4.60;4.20;;;;;;;21.52;54.29;156898.84;5010646;28;20470;-77
2022/08/06 09:50:05;;;;;;;6.43;4.60;;;;;;;21.35;54.51;156854.44;5032401;28;20781;-77
2022/08/06 09:52:32;;;;;;;4.00;3.60;;;;;;;21.42;54.55;156871.44;5013416;28;20518;-78
2022/08/06 09:55:02;;;;;;;3.80;3.50;;;;;;;21.73;54.17;156952.38;5031042;28;20428;-77
2022/08/06 09:57:42;;;;;;;4.47;4.07;;;;;;;21.47;53.47;156885.75;5021153;28;20444;-77
2022/08/06 10:00:10;;;;;;;4.63;3.73;;;;;;;21.31;53.71;156844.03;5022037;28;20459;-77
2022/08/06 10:02:38;;;;;;;5.23;3.80;;;;;;;21.10;54.69;156789.22;5031534;28;20456;-77
2022/08/06 10:05:08;;;;;;;5.47;4.07;;;;;;;21.34;53.89;156851.81;5014754;28;20443;-78
2022/08/06 10:07:35;;;;;;;4.40;4.10;;;;;;;21.37;53.37;156859.66;5019902;28;20479;-77
2022/08/06 10:10:04;;;;;;;3.80;3.50;;;;;;;21.67;53.48;156938.00;5013694;28;20439;-78
2022/08/06 10:12:31;;;;;;;3.60;3.30;;;;;;;21.84;53.06;156982.38;4993445;28;20600;-78
2022/08/06 10:14:57;;;;;;;4.00;3.70;;;;;;;21.63;52.25;156927.53;5028890;28;20428;-77
2022/08/06 10:17:25;;;;;;;4.03;3.70;;;;;;;21.83;52.34;156978.47;5030194;28;20792;-77
2022/08/06 10:20:07;;;;;;;3.90;3.60;;;;;;;21.95;51.15;157009.84;5031871;28;20515;-77
2022/08/06 10:22:34;;;;;;;4.20;3.90;;;;;;;21.91;51.56;156998.09;5031549;28;20442;-77
2022/08/06 10:25:05;;;;;;;5.70;5.03;;;;;;;21.61;51.38;156922.31;4995240;28;21083;-77
2022/08/06 10:27:33;;;;;;;5.20;4.00;;;;;;;21.98;52.17;157016.38;5012877;28;20463;-78
2022/08/06 10:30:03;;;;;;;5.40;4.13;;;;;;;22.22;51.70;157079.06;5031320;28;20450;-77
2022/08/06 10:32:33;;;;;;;4.23;3.80;;;;;;;21.93;50.63;157004.63;4995958;28;20844;-77
2022/08/06 10:35:02;;;;;;;4.40;4.07;;;;;;;21.82;52.20;156975.84;5025614;28;20443;-78
2022/08/06 10:37:29;;;;;;;4.70;4.30;;;;;;;21.87;52.39;156988.94;5011303;28;20462;-77
2022/08/06 10:39:58;;;;;;;3.77;3.47;;;;;;;21.95;52.26;157009.84;5010599;28;20495;-77
2022/08/06 10:42:26;;;;;;;4.50;4.20;;;;;;;21.80;53.27;156971.94;4993720;28;20527;-78
2022/08/06 10:44:53;;;;;;;4.20;3.90;;;;;;;21.77;53.41;156964.09;5026530;28;20456;-77
2022/08/06 10:47:20;;;;;;;5.30;3.90;;;;;;;21.93;51.67;157003.31;5014739;28;20447;-78
2022/08/06 10:49:48;;;;;;;3.67;3.30;;;;;;;22.10;52.29;157047.72;5029320;28;20443;-78
2022/08/06 10:52:15;;;;;;;4.73;3.90;;;;;;;22.12;51.53;157052.94;5012345;28;20444;-78
2022/08/06 10:54:42;;;;;;;4.00;3.70;;;;;;;21.94;51.63;157005.94;5029488;28;20442;-75
2022/08/06 10:57:12;;;;;;;3.60;3.40;;;;;;;22.11;51.39;157050.31;5008639;28;20551;-75
2022/08/06 10:59:43;;;;;;;6.10;3.73;;;;;;;22.15;51.21;157060.78;5013251;28;20467;-75
2022/08/06 11:02:24;;;;;;;4.40;3.80;;;;;;;22.21;50.89;157077.75;5030816;28;20463;-75
2022/08/06 11:04:53;;;;;;;3.87;3.57;;;;;;;22.48;50.93;157146.97;5024865;28;20783;-75
2022/08/06 11:07:45;;;;;;;4.90;3.90;;;;;;;22.47;50.12;157143.06;4992844;28;20540;-75
2022/08/06 11:10:33;;;;;;;4.57;4.27;;;;;;;22.36;50.78;157115.63;5017296;28;20718;-76
2022/08/06 11:13:10;;;;;;;5.17;3.67;;;;;;;22.08;51.62;157043.78;4998065;28;20443;-75
2022/08/06 11:15:38;;;;;;;6.40;4.33;;;;;;;21.68;51.90;156940.59;5009365;28;20452;-75
2022/08/06 11:18:06;;;;;;;4.60;4.23;;;;;;;21.61;52.93;156921.00;5028562;28;20559;-75
2022/08/06 11:20:41;;;;;;;5.00;4.60;;;;;;;21.61;52.13;156921.00;5011475;28;20489;-75
2022/08/06 11:23:26;;;;;;;4.17;3.77;;;;;;;21.78;52.41;156966.75;5000998;28;20520;-75
2022/08/06 11:25:55;;;;;;;4.40;4.00;;;;;;;21.93;51.97;157003.31;5011118;28;20431;-75
2022/08/06 11:28:59;;;;;;;4.50;4.10;;;;;;;21.87;51.09;156987.69;5027115;28;20483;-75
2022/08/06 11:31:45;;;;;;;4.30;3.93;;;;;;;21.78;51.22;156966.75;5011732;28;20701;-75
2022/08/06 11:34:14;;;;;;;4.90;3.90;;;;;;;21.86;50.77;156986.38;5026902;28;20455;-75
2022/08/06 11:36:54;;;;;;;5.43;4.90;;;;;;;21.90;50.34;156996.78;5012502;28;20467;-75
2022/08/06 11:39:22;;;;;;;5.10;3.40;;;;;;;22.09;48.95;157046.41;5019960;28;20456;-75